sensor_id;sensor_type;location;lat;lon;timestamp;pressure;altitude;pressure_sealevel;temperature;humidity
76766;BME280;65707;52.362;6.588;2023-02-28T00:01:21;103183.22;;;4.51;67.81
76766;BME280;65707;52.362;6.588;2023-02-28T00:03:49;103180.22;;;4.58;67.58
76766;BME280;65707;52.362;6.588;2023-02-28T00:06:16;103177.19;;;4.66;67.12
76766;BME280;65707;52.362;6.588;2023-02-28T00:08:45;103182.22;;;4.72;66.97
76766;BME280;65707;52.362;6.588;2023-02-28T00:11:13;103186.59;;;4.73;67.54
76766;BME280;65707;52.362;6.588;2023-02-28T00:13:42;103179.59;;;4.89;66.66
76766;BME280;65707;52.362;6.588;2023-02-28T00:16:13;103173.81;;;4.98;66.08
76766;BME280;65707;52.362;6.588;2023-02-28T00:18:41;103173.81;;;4.98;66.66
76766;BME280;65707;52.362;6.588;2023-02-28T00:21:08;103174.53;;;5.02;65.61
76766;BME280;65707;52.362;6.588;2023-02-28T00:23:35;103178.53;;;4.93;66.28
76766;BME280;65707;52.362;6.588;2023-02-28T00:26:06;103167.47;;;4.84;66.76
76766;BME280;65707;52.362;6.588;2023-02-28T00:28:33;103181.25;;;4.92;66.88
76766;BME280;65707;52.362;6.588;2023-02-28T00:31:00;103178.34;;;4.79;67.45
76766;BME280;65707;52.362;6.588;2023-02-28T00:33:27;103180.19;;;4.77;67.24
76766;BME280;65707;52.362;6.588;2023-02-28T00:36:02;103177.63;;;4.75;67.87
76766;BME280;65707;52.362;6.588;2023-02-28T00:38:33;103189.75;;;4.81;66.94
76766;BME280;65707;52.362;6.588;2023-02-28T00:41:00;103177.47;;;4.78;67.59
76766;BME280;65707;52.362;6.588;2023-02-28T00:43:32;103190.03;;;4.75;67.58
76766;BME280;65707;52.362;6.588;2023-02-28T00:45:59;103187.19;;;4.61;68.35
76766;BME280;65707;52.362;6.588;2023-02-28T00:48:26;103181.00;;;4.79;68.29
76766;BME280;65707;52.362;6.588;2023-02-28T00:50:53;103172.19;;;4.96;67.78
76766;BME280;65707;52.362;6.588;2023-02-28T00:53:20;103175.00;;;4.93;67.20
76766;BME280;65707;52.362;6.588;2023-02-28T00:55:48;103163.81;;;4.67;67.94
76766;BME280;65707;52.362;6.588;2023-02-28T00:58:15;103180.50;;;4.71;68.28
76766;BME280;65707;52.362;6.588;2023-02-28T01:00:43;103175.34;;;4.68;68.86
76766;BME280;65707;52.362;6.588;2023-02-28T01:03:14;103174.84;;;4.96;68.27
76766;BME280;65707;52.362;6.588;2023-02-28T01:05:42;103174.69;;;4.99;66.76
76766;BME280;65707;52.362;6.588;2023-02-28T01:08:09;103166.22;;;4.91;67.12
76766;BME280;65707;52.362;6.588;2023-02-28T01:10:36;103161.72;;;5.10;67.63
76766;BME280;65707;52.362;6.588;2023-02-28T01:13:04;103155.28;;;4.97;67.01
76766;BME280;65707;52.362;6.588;2023-02-28T01:15:31;103151.88;;;5.12;66.51
76766;BME280;65707;52.362;6.588;2023-02-28T01:18:00;103154.53;;;5.29;66.74
76766;BME280;65707;52.362;6.588;2023-02-28T01:20:27;103153.41;;;5.33;65.92
76766;BME280;65707;52.362;6.588;2023-02-28T01:22:54;103166.25;;;5.25;66.42
76766;BME280;65707;52.362;6.588;2023-02-28T01:25:21;103162.84;;;5.23;67.12
76766;BME280;65707;52.362;6.588;2023-02-28T01:27:48;103166.25;;;5.25;67.36
76766;BME280;65707;52.362;6.588;2023-02-28T01:30:15;103157.50;;;5.23;66.34
76766;BME280;65707;52.362;6.588;2023-02-28T01:32:42;103164.06;;;5.16;66.93
76766;BME280;65707;52.362;6.588;2023-02-28T01:35:10;103158.06;;;5.29;66.22
76766;BME280;65707;52.362;6.588;2023-02-28T01:37:37;103156.78;;;5.19;66.90
76766;BME280;65707;52.362;6.588;2023-02-28T01:40:05;103173.22;;;4.93;68.03
76766;BME280;65707;52.362;6.588;2023-02-28T01:42:33;103158.75;;;5.16;67.21
76766;BME280;65707;52.362;6.588;2023-02-28T01:45:18;103158.50;;;5.20;67.14
76766;BME280;65707;52.362;6.588;2023-02-28T01:47:51;103158.66;;;5.17;66.78
76766;BME280;65707;52.362;6.588;2023-02-28T01:50:26;103153.50;;;5.14;67.30
76766;BME280;65707;52.362;6.588;2023-02-28T01:52:59;103171.38;;;4.94;67.68
76766;BME280;65707;52.362;6.588;2023-02-28T01:55:32;103163.63;;;4.89;68.26
76766;BME280;65707;52.362;6.588;2023-02-28T01:58:02;103152.34;;;5.03;67.63
76766;BME280;65707;52.362;6.588;2023-02-28T02:00:32;103153.34;;;5.17;67.21
76766;BME280;65707;52.362;6.588;2023-02-28T02:03:04;103154.69;;;5.09;67.18
76766;BME280;65707;52.362;6.588;2023-02-28T02:05:37;103169.09;;;4.86;68.43
76766;BME280;65707;52.362;6.588;2023-02-28T02:08:06;103164.50;;;4.90;68.63
76766;BME280;65707;52.362;6.588;2023-02-28T02:10:40;103148.97;;;4.99;68.41
76766;BME280;65707;52.362;6.588;2023-02-28T02:13:21;103153.19;;;5.03;67.80
76766;BME280;65707;52.362;6.588;2023-02-28T02:16:04;103161.00;;;5.06;68.68
76766;BME280;65707;52.362;6.588;2023-02-28T02:18:44;103166.16;;;5.09;68.41
76766;BME280;65707;52.362;6.588;2023-02-28T02:22:00;103166.66;;;5.17;67.65
76766;BME280;65707;52.362;6.588;2023-02-28T02:24:59;103170.22;;;4.82;68.95
76766;BME280;65707;52.362;6.588;2023-02-28T02:28:09;103178.25;;;4.81;69.28
76766;BME280;65707;52.362;6.588;2023-02-28T02:31:25;103177.25;;;4.83;68.61
76766;BME280;65707;52.362;6.588;2023-02-28T02:34:28;103167.81;;;4.76;67.83
76766;BME280;65707;52.362;6.588;2023-02-28T02:37:25;103163.72;;;4.88;67.14
76766;BME280;65707;52.362;6.588;2023-02-28T02:40:03;103159.91;;;4.93;66.67
76766;BME280;65707;52.362;6.588;2023-02-28T02:42:40;103164.34;;;4.93;65.27
76766;BME280;65707;52.362;6.588;2023-02-28T02:45:15;103150.50;;;4.86;64.99
76766;BME280;65707;52.362;6.588;2023-02-28T02:47:48;103141.22;;;4.95;64.17
76766;BME280;65707;52.362;6.588;2023-02-28T02:50:22;103142.34;;;4.89;63.78
76766;BME280;65707;52.362;6.588;2023-02-28T02:52:56;103165.81;;;4.81;65.17
76766;BME280;65707;52.362;6.588;2023-02-28T02:55:26;103164.56;;;4.71;64.63
76766;BME280;65707;52.362;6.588;2023-02-28T02:57:59;103164.81;;;4.65;65.64
76766;BME280;65707;52.362;6.588;2023-02-28T03:00:33;103168.91;;;4.72;65.36
76766;BME280;65707;52.362;6.588;2023-02-28T03:03:04;103177.47;;;4.78;64.57
76766;BME280;65707;52.362;6.588;2023-02-28T03:05:42;103142.69;;;5.00;63.69
76766;BME280;65707;52.362;6.588;2023-02-28T03:08:12;103161.63;;;4.94;62.86
76766;BME280;65707;52.362;6.588;2023-02-28T03:10:41;103169.00;;;4.70;63.87
76766;BME280;65707;52.362;6.588;2023-02-28T03:13:40;103170.78;;;4.70;64.78
76766;BME280;65707;52.362;6.588;2023-02-28T03:16:28;103166.22;;;4.55;65.17
76766;BME280;65707;52.362;6.588;2023-02-28T03:19:29;103166.25;;;4.72;66.10
76766;BME280;65707;52.362;6.588;2023-02-28T03:22:14;103160.78;;;4.75;65.99
76766;BME280;65707;52.362;6.588;2023-02-28T03:25:06;103159.50;;;4.84;65.83
76766;BME280;65707;52.362;6.588;2023-02-28T03:27:42;103152.00;;;4.92;64.40
76766;BME280;65707;52.362;6.588;2023-02-28T03:30:22;103145.34;;;5.00;65.42
76766;BME280;65707;52.362;6.588;2023-02-28T03:32:57;103140.09;;;4.99;65.13
76766;BME280;65707;52.362;6.588;2023-02-28T03:35:32;103128.75;;;4.95;65.22
76766;BME280;65707;52.362;6.588;2023-02-28T03:38:08;103148.16;;;4.97;65.47
76766;BME280;65707;52.362;6.588;2023-02-28T03:40:44;103171.44;;;4.75;65.91
76766;BME280;65707;52.362;6.588;2023-02-28T03:43:20;103162.50;;;4.76;65.50
76766;BME280;65707;52.362;6.588;2023-02-28T03:45:51;103158.63;;;4.83;65.54
76766;BME280;65707;52.362;6.588;2023-02-28T03:48:25;103160.72;;;4.76;66.06
76766;BME280;65707;52.362;6.588;2023-02-28T03:50:59;103165.19;;;4.57;66.32
76766;BME280;65707;52.362;6.588;2023-02-28T03:53:39;103161.59;;;4.77;65.96
76766;BME280;65707;52.362;6.588;2023-02-28T03:56:14;103164.25;;;4.77;66.11
76766;BME280;65707;52.362;6.588;2023-02-28T03:58:48;103150.00;;;4.78;65.64
76766;BME280;65707;52.362;6.588;2023-02-28T04:01:23;103128.41;;;4.84;65.99
76766;BME280;65707;52.362;6.588;2023-02-28T04:03:53;103134.88;;;4.97;66.07
76766;BME280;65707;52.362;6.588;2023-02-28T04:06:22;103144.56;;;4.98;65.54
76766;BME280;65707;52.362;6.588;2023-02-28T04:08:51;103143.41;;;5.04;65.51
76766;BME280;65707;52.362;6.588;2023-02-28T04:11:24;103140.19;;;4.97;65.96
76766;BME280;65707;52.362;6.588;2023-02-28T04:13:56;103148.16;;;4.97;66.53
76766;BME280;65707;52.362;6.588;2023-02-28T04:16:23;103143.00;;;4.94;66.55
76766;BME280;65707;52.362;6.588;2023-02-28T04:18:49;103145.50;;;5.14;65.68
76766;BME280;65707;52.362;6.588;2023-02-28T04:21:16;103154.22;;;5.18;65.69
76766;BME280;65707;52.362;6.588;2023-02-28T04:23:45;103150.03;;;5.12;65.92
76766;BME280;65707;52.362;6.588;2023-02-28T04:26:13;103154.69;;;5.09;66.35
76766;BME280;65707;52.362;6.588;2023-02-28T04:28:40;103162.84;;;4.87;67.42
76766;BME280;65707;52.362;6.588;2023-02-28T04:31:07;103149.59;;;5.04;66.98
76766;BME280;65707;52.362;6.588;2023-02-28T04:33:35;103152.53;;;4.98;67.26
76766;BME280;65707;52.362;6.588;2023-02-28T04:36:04;103158.34;;;5.06;66.54
76766;BME280;65707;52.362;6.588;2023-02-28T04:38:33;103156.16;;;4.97;67.95
76766;BME280;65707;52.362;6.588;2023-02-28T04:41:02;103150.66;;;5.00;67.25
76766;BME280;65707;52.362;6.588;2023-02-28T04:43:31;103153.94;;;4.88;67.59
76766;BME280;65707;52.362;6.588;2023-02-28T04:46:02;103157.16;;;4.95;67.32
76766;BME280;65707;52.362;6.588;2023-02-28T04:48:33;103161.59;;;4.77;67.29
76766;BME280;65707;52.362;6.588;2023-02-28T04:51:03;103169.44;;;4.61;68.30
76766;BME280;65707;52.362;6.588;2023-02-28T04:53:31;103168.84;;;4.73;68.25
76766;BME280;65707;52.362;6.588;2023-02-28T04:55:59;103166.88;;;4.60;68.15
76766;BME280;65707;52.362;6.588;2023-02-28T04:58:27;103157.09;;;4.42;69.04
76766;BME280;65707;52.362;6.588;2023-02-28T05:01:01;103141.28;;;4.39;69.25
76766;BME280;65707;52.362;6.588;2023-02-28T05:03:30;103142.78;;;4.63;68.25
76766;BME280;65707;52.362;6.588;2023-02-28T05:05:56;103147.56;;;4.73;68.16
76766;BME280;65707;52.362;6.588;2023-02-28T05:08:23;103152.75;;;4.76;68.63
76766;BME280;65707;52.362;6.588;2023-02-28T05:10:50;103148.38;;;4.75;68.72
76766;BME280;65707;52.362;6.588;2023-02-28T05:13:17;103163.81;;;4.67;68.71
76766;BME280;65707;52.362;6.588;2023-02-28T05:15:44;103162.66;;;4.73;68.31
76766;BME280;65707;52.362;6.588;2023-02-28T05:18:12;103145.22;;;4.67;68.30
76766;BME280;65707;52.362;6.588;2023-02-28T05:20:39;103158.94;;;4.77;67.73
76766;BME280;65707;52.362;6.588;2023-02-28T05:23:06;103149.66;;;4.67;67.95
76766;BME280;65707;52.362;6.588;2023-02-28T05:25:35;103160.16;;;4.70;68.79
76766;BME280;65707;52.362;6.588;2023-02-28T05:28:02;103161.09;;;4.69;68.15
76766;BME280;65707;52.362;6.588;2023-02-28T05:30:29;103158.44;;;4.69;68.20
76766;BME280;65707;52.362;6.588;2023-02-28T05:32:57;103168.88;;;4.55;68.51
76766;BME280;65707;52.362;6.588;2023-02-28T05:35:26;103168.66;;;4.59;68.51
76766;BME280;65707;52.362;6.588;2023-02-28T05:37:53;103174.41;;;4.50;68.73
76766;BME280;65707;52.362;6.588;2023-02-28T05:40:20;103170.44;;;4.40;69.33
76766;BME280;65707;52.362;6.588;2023-02-28T05:42:46;103171.69;;;4.52;68.72
76766;BME280;65707;52.362;6.588;2023-02-28T05:45:13;103182.38;;;4.32;69.50
76766;BME280;65707;52.362;6.588;2023-02-28T05:47:40;103185.22;;;4.09;70.09
76766;BME280;65707;52.362;6.588;2023-02-28T05:50:08;103190.38;;;3.73;71.21
76766;BME280;65707;52.362;6.588;2023-02-28T05:52:37;103188.78;;;3.89;71.00
76766;BME280;65707;52.362;6.588;2023-02-28T05:55:05;103175.72;;;3.85;70.58
76766;BME280;65707;52.362;6.588;2023-02-28T05:57:32;103171.19;;;4.05;70.13
76766;BME280;65707;52.362;6.588;2023-02-28T05:59:59;103176.81;;;4.18;69.52
76766;BME280;65707;52.362;6.588;2023-02-28T06:02:26;103177.91;;;4.14;69.40
76766;BME280;65707;52.362;6.588;2023-02-28T06:04:53;103186.03;;;4.11;69.33
76766;BME280;65707;52.362;6.588;2023-02-28T06:07:20;103178.16;;;3.89;70.54
76766;BME280;65707;52.362;6.588;2023-02-28T06:09:49;103189.09;;;4.02;70.51
76766;BME280;65707;52.362;6.588;2023-02-28T06:12:15;103182.50;;;4.10;69.68
76766;BME280;65707;52.362;6.588;2023-02-28T06:14:43;103191.81;;;3.80;71.21
76766;BME280;65707;52.362;6.588;2023-02-28T06:17:09;103199.66;;;3.63;71.66
76766;BME280;65707;52.362;6.588;2023-02-28T06:19:37;103196.19;;;3.63;72.17
76766;BME280;65707;52.362;6.588;2023-02-28T06:22:06;103204.28;;;3.60;72.77
76766;BME280;65707;52.362;6.588;2023-02-28T06:24:36;103196.88;;;3.86;71.60
76766;BME280;65707;52.362;6.588;2023-02-28T06:27:04;103185.88;;;3.75;72.17
76766;BME280;65707;52.362;6.588;2023-02-28T06:29:31;103197.00;;;3.63;71.14
76766;BME280;65707;52.362;6.588;2023-02-28T06:31:58;103201.81;;;3.75;71.86
76766;BME280;65707;52.362;6.588;2023-02-28T06:34:25;103207.38;;;3.69;72.10
76766;BME280;65707;52.362;6.588;2023-02-28T06:36:55;103202.84;;;3.91;71.75
76766;BME280;65707;52.362;6.588;2023-02-28T06:39:22;103205.19;;;3.99;70.55
76766;BME280;65707;52.362;6.588;2023-02-28T06:41:49;103209.22;;;3.87;71.06
76766;BME280;65707;52.362;6.588;2023-02-28T06:44:18;103205.56;;;3.90;70.52
76766;BME280;65707;52.362;6.588;2023-02-28T06:46:46;103212.06;;;4.03;69.96
76766;BME280;65707;52.362;6.588;2023-02-28T06:49:13;103211.25;;;4.01;69.39
76766;BME280;65707;52.362;6.588;2023-02-28T06:51:42;103218.03;;;4.08;69.56
76766;BME280;65707;52.362;6.588;2023-02-28T06:54:10;103216.28;;;4.27;68.26
76766;BME280;65707;52.362;6.588;2023-02-28T06:56:38;103214.09;;;4.16;68.00
76766;BME280;65707;52.362;6.588;2023-02-28T06:59:05;103224.19;;;4.28;67.15
76766;BME280;65707;52.362;6.588;2023-02-28T07:01:34;103222.66;;;4.23;66.89
76766;BME280;65707;52.362;6.588;2023-02-28T07:04:01;103229.72;;;4.04;67.42
76766;BME280;65707;52.362;6.588;2023-02-28T07:06:31;103227.97;;;4.23;67.59
76766;BME280;65707;52.362;6.588;2023-02-28T07:08:58;103227.88;;;4.24;67.02
76766;BME280;65707;52.362;6.588;2023-02-28T07:11:27;103235.16;;;4.21;66.92
76766;BME280;65707;52.362;6.588;2023-02-28T07:13:55;103229.19;;;4.16;66.52
76766;BME280;65707;52.362;6.588;2023-02-28T07:16:23;103221.59;;;4.45;64.00
76766;BME280;65707;52.362;6.588;2023-02-28T07:18:53;103222.25;;;4.50;63.26
76766;BME280;65707;52.362;6.588;2023-02-28T07:21:21;103224.25;;;4.45;63.53
76766;BME280;65707;52.362;6.588;2023-02-28T07:23:49;103219.59;;;4.50;62.76
76766;BME280;65707;52.362;6.588;2023-02-28T07:26:18;103223.25;;;4.48;62.59
76766;BME280;65707;52.362;6.588;2023-02-28T07:28:47;103223.09;;;4.51;62.05
76766;BME280;65707;52.362;6.588;2023-02-28T07:31:15;103229.28;;;4.51;62.25
76766;BME280;65707;52.362;6.588;2023-02-28T07:33:43;103233.94;;;4.46;62.81
76766;BME280;65707;52.362;6.588;2023-02-28T07:36:13;103229.50;;;4.65;61.63
76766;BME280;65707;52.362;6.588;2023-02-28T07:38:45;103229.13;;;4.73;60.93
76766;BME280;65707;52.362;6.588;2023-02-28T07:41:19;103227.25;;;4.94;59.18
76766;BME280;65707;52.362;6.588;2023-02-28T07:43:49;103229.84;;;4.95;59.37
76766;BME280;65707;52.362;6.588;2023-02-28T07:46:16;103222.19;;;5.06;58.47
76766;BME280;65707;52.362;6.588;2023-02-28T07:48:45;103217.50;;;5.11;56.26
76766;BME280;65707;52.362;6.588;2023-02-28T07:51:13;103214.13;;;5.08;56.59
76766;BME280;65707;52.362;6.588;2023-02-28T07:53:40;103224.00;;;5.06;56.02
76766;BME280;65707;52.362;6.588;2023-02-28T07:56:07;103216.81;;;5.25;54.43
76766;BME280;65707;52.362;6.588;2023-02-28T07:58:39;103203.75;;;5.37;54.61
76766;BME280;65707;52.362;6.588;2023-02-28T08:01:06;103187.63;;;5.74;53.51
76766;BME280;65707;52.362;6.588;2023-02-28T08:03:35;103199.75;;;6.14;54.07
76766;BME280;65707;52.362;6.588;2023-02-28T08:06:03;103199.03;;;6.90;51.21
76766;BME280;65707;52.362;6.588;2023-02-28T08:08:33;103196.88;;;7.41;48.55
76766;BME280;65707;52.362;6.588;2023-02-28T08:11:01;103192.06;;;7.62;45.29
76766;BME280;65707;52.362;6.588;2023-02-28T08:13:30;103181.13;;;7.66;45.12
76766;BME280;65707;52.362;6.588;2023-02-28T08:15:57;103182.47;;;8.02;45.01
76766;BME280;65707;52.362;6.588;2023-02-28T08:18:24;103180.91;;;8.27;43.33
76766;BME280;65707;52.362;6.588;2023-02-28T08:20:51;103180.09;;;8.53;42.33
76766;BME280;65707;52.362;6.588;2023-02-28T08:23:18;103186.53;;;8.77;41.81
76766;BME280;65707;52.362;6.588;2023-02-28T08:25:52;103175.06;;;9.28;42.51
76766;BME280;65707;52.362;6.588;2023-02-28T08:28:20;103161.59;;;9.55;37.91
76766;BME280;65707;52.362;6.588;2023-02-28T08:30:47;103158.44;;;9.88;37.56
76766;BME280;65707;52.362;6.588;2023-02-28T08:33:14;103155.63;;;10.02;34.52
76766;BME280;65707;52.362;6.588;2023-02-28T08:35:41;103139.44;;;10.03;33.33
76766;BME280;65707;52.362;6.588;2023-02-28T08:38:08;103153.72;;;10.29;33.39
76766;BME280;65707;52.362;6.588;2023-02-28T08:40:35;103150.81;;;10.07;34.08
76766;BME280;65707;52.362;6.588;2023-02-28T08:43:04;103157.66;;;9.98;34.27
76766;BME280;65707;52.362;6.588;2023-02-28T08:45:31;103153.78;;;9.65;34.72
76766;BME280;65707;52.362;6.588;2023-02-28T08:47:58;103155.09;;;9.72;34.67
76766;BME280;65707;52.362;6.588;2023-02-28T08:50:25;103155.75;;;9.88;33.25
76766;BME280;65707;52.362;6.588;2023-02-28T08:52:52;103144.25;;;10.36;33.23
76766;BME280;65707;52.362;6.588;2023-02-28T08:55:19;103143.41;;;10.59;32.54
76766;BME280;65707;52.362;6.588;2023-02-28T08:57:46;103136.56;;;10.55;31.45
76766;BME280;65707;52.362;6.588;2023-02-28T09:00:15;103140.19;;;10.90;32.29
76766;BME280;65707;52.362;6.588;2023-02-28T09:02:43;103140.56;;;10.37;31.92
76766;BME280;65707;52.362;6.588;2023-02-28T09:05:09;103139.28;;;11.02;30.58
76766;BME280;65707;52.362;6.588;2023-02-28T09:07:36;103156.31;;;10.66;33.42
76766;BME280;65707;52.362;6.588;2023-02-28T09:10:04;103146.81;;;10.73;30.89
76766;BME280;65707;52.362;6.588;2023-02-28T09:12:33;103143.63;;;9.82;32.91
76766;BME280;65707;52.362;6.588;2023-02-28T09:15:00;103158.84;;;9.69;32.19
76766;BME280;65707;52.362;6.588;2023-02-28T09:17:29;103164.53;;;10.40;33.30
76766;BME280;65707;52.362;6.588;2023-02-28T09:19:55;103149.50;;;10.73;29.63
76766;BME280;65707;52.362;6.588;2023-02-28T09:22:23;103145.34;;;10.93;29.78
76766;BME280;65707;52.362;6.588;2023-02-28T09:24:50;103143.31;;;11.08;29.71
76766;BME280;65707;52.362;6.588;2023-02-28T09:27:16;103132.25;;;11.12;28.75
76766;BME280;65707;52.362;6.588;2023-02-28T09:29:43;103131.56;;;11.32;28.35
76766;BME280;65707;52.362;6.588;2023-02-28T09:32:10;103129.47;;;11.70;28.59
76766;BME280;65707;52.362;6.588;2023-02-28T09:34:38;103131.88;;;11.51;27.92
76766;BME280;65707;52.362;6.588;2023-02-28T09:37:05;103125.22;;;11.68;27.81
76766;BME280;65707;52.362;6.588;2023-02-28T09:39:32;103127.47;;;11.50;28.40
76766;BME280;65707;52.362;6.588;2023-02-28T09:41:58;103119.63;;;11.47;28.89
76766;BME280;65707;52.362;6.588;2023-02-28T09:44:31;103127.34;;;11.52;28.71
76766;BME280;65707;52.362;6.588;2023-02-28T09:47:12;103121.94;;;11.86;28.62
76766;BME280;65707;52.362;6.588;2023-02-28T09:49:47;103127.06;;;12.00;28.42
76766;BME280;65707;52.362;6.588;2023-02-28T09:52:17;103122.34;;;12.69;27.26
76766;BME280;65707;52.362;6.588;2023-02-28T09:54:47;103117.03;;;13.00;26.75
76766;BME280;65707;52.362;6.588;2023-02-28T09:57:19;103115.59;;;13.17;28.40
76766;BME280;65707;52.362;6.588;2023-02-28T10:00:05;103104.28;;;13.64;25.17
76766;BME280;65707;52.362;6.588;2023-02-28T10:02:49;103111.47;;;13.74;26.21
76766;BME280;65707;52.362;6.588;2023-02-28T10:05:28;103118.72;;;14.04;25.41
76766;BME280;65707;52.362;6.588;2023-02-28T10:08:07;103112.78;;;14.40;25.22
76766;BME280;65707;52.362;6.588;2023-02-28T10:10:40;103107.91;;;14.44;25.76
76766;BME280;65707;52.362;6.588;2023-02-28T10:13:19;103093.47;;;14.54;24.92
76766;BME280;65707;52.362;6.588;2023-02-28T10:15:53;103101.53;;;14.45;25.29
76766;BME280;65707;52.362;6.588;2023-02-28T10:18:28;103102.06;;;13.99;24.99
76766;BME280;65707;52.362;6.588;2023-02-28T10:21:04;103102.50;;;14.04;27.06
76766;BME280;65707;52.362;6.588;2023-02-28T10:23:34;103106.03;;;14.04;24.72
76766;BME280;65707;52.362;6.588;2023-02-28T10:26:11;103105.28;;;14.23;25.15
76766;BME280;65707;52.362;6.588;2023-02-28T10:28:41;103112.94;;;14.67;25.35
76766;BME280;65707;52.362;6.588;2023-02-28T10:31:11;103091.59;;;14.64;22.71
76766;BME280;65707;52.362;6.588;2023-02-28T10:33:43;103094.06;;;15.05;22.95
76766;BME280;65707;52.362;6.588;2023-02-28T10:36:14;103102.59;;;15.20;24.53
76766;BME280;65707;52.362;6.588;2023-02-28T10:38:45;103095.88;;;15.33;24.09
76766;BME280;65707;52.362;6.588;2023-02-28T10:41:14;103087.41;;;15.84;24.29
76766;BME280;65707;52.362;6.588;2023-02-28T10:43:52;103096.47;;;15.56;24.40
76766;BME280;65707;52.362;6.588;2023-02-28T10:46:39;103100.34;;;15.44;24.56
76766;BME280;65707;52.362;6.588;2023-02-28T10:49:14;103095.19;;;15.31;23.85
76766;BME280;65707;52.362;6.588;2023-02-28T10:51:49;103105.16;;;15.60;24.07
76766;BME280;65707;52.362;6.588;2023-02-28T10:54:23;103106.41;;;15.36;25.14
76766;BME280;65707;52.362;6.588;2023-02-28T10:57:12;103096.47;;;15.18;25.00
76766;BME280;65707;52.362;6.588;2023-02-28T10:59:43;103092.16;;;15.63;24.41
76766;BME280;65707;52.362;6.588;2023-02-28T11:02:37;103090.41;;;16.89;24.15
76766;BME280;65707;52.362;6.588;2023-02-28T11:05:24;103091.88;;;16.03;25.38
76766;BME280;65707;52.362;6.588;2023-02-28T11:08:05;103094.97;;;16.17;25.20
76766;BME280;65707;52.362;6.588;2023-02-28T11:10:38;103101.09;;;15.83;25.92
76766;BME280;65707;52.362;6.588;2023-02-28T11:13:06;103086.91;;;15.52;25.48
76766;BME280;65707;52.362;6.588;2023-02-28T11:15:34;103086.53;;;15.84;24.34
76766;BME280;65707;52.362;6.588;2023-02-28T11:18:08;103084.31;;;15.70;26.40
76766;BME280;65707;52.362;6.588;2023-02-28T11:20:49;103074.44;;;15.88;24.50
76766;BME280;65707;52.362;6.588;2023-02-28T11:23:24;103086.38;;;15.85;27.48
76766;BME280;65707;52.362;6.588;2023-02-28T11:25:56;103071.66;;;16.24;24.86
76766;BME280;65707;52.362;6.588;2023-02-28T11:28:29;103080.22;;;16.02;25.13
76766;BME280;65707;52.362;6.588;2023-02-28T11:31:04;103080.03;;;15.77;25.94
76766;BME280;65707;52.362;6.588;2023-02-28T11:33:42;103077.53;;;15.56;25.49
76766;BME280;65707;52.362;6.588;2023-02-28T11:36:13;103075.69;;;15.47;25.12
76766;BME280;65707;52.362;6.588;2023-02-28T11:38:43;103067.59;;;15.18;25.17
76766;BME280;65707;52.362;6.588;2023-02-28T11:41:28;103075.38;;;15.60;25.42
76766;BME280;65707;52.362;6.588;2023-02-28T11:44:18;103064.22;;;15.72;25.72
76766;BME280;65707;52.362;6.588;2023-02-28T11:46:58;103064.53;;;15.96;25.74
76766;BME280;65707;52.362;6.588;2023-02-28T11:49:34;103065.31;;;16.16;24.19
76766;BME280;65707;52.362;6.588;2023-02-28T11:52:21;103067.91;;;16.35;24.54
76766;BME280;65707;52.362;6.588;2023-02-28T11:55:08;103063.09;;;16.02;25.19
76766;BME280;65707;52.362;6.588;2023-02-28T11:57:59;103062.84;;;15.95;24.29
76766;BME280;65707;52.362;6.588;2023-02-28T12:01:01;103067.81;;;16.27;25.21
76766;BME280;65707;52.362;6.588;2023-02-28T12:03:44;103055.69;;;16.93;24.94
76766;BME280;65707;52.362;6.588;2023-02-28T12:06:25;103042.50;;;16.98;23.32
76766;BME280;65707;52.362;6.588;2023-02-28T12:09:04;103041.66;;;16.97;24.91
76766;BME280;65707;52.362;6.588;2023-02-28T12:11:51;103034.81;;;17.54;24.25
76766;BME280;65707;52.362;6.588;2023-02-28T12:14:52;103038.63;;;17.69;24.24
76766;BME280;65707;52.362;6.588;2023-02-28T12:17:39;103040.03;;;17.73;23.48
76766;BME280;65707;52.362;6.588;2023-02-28T12:20:25;103022.78;;;17.90;22.09
76766;BME280;65707;52.362;6.588;2023-02-28T12:23:14;103028.31;;;17.47;21.53
76766;BME280;65707;52.362;6.588;2023-02-28T12:26:06;103039.19;;;16.42;23.50
76766;BME280;65707;52.362;6.588;2023-02-28T12:28:43;103045.34;;;16.17;24.91
76766;BME280;65707;52.362;6.588;2023-02-28T12:31:18;103040.31;;;15.95;24.46
76766;BME280;65707;52.362;6.588;2023-02-28T12:33:52;103033.75;;;16.69;26.04
76766;BME280;65707;52.362;6.588;2023-02-28T12:36:22;103020.41;;;17.36;23.02
76766;BME280;65707;52.362;6.588;2023-02-28T12:38:55;103013.25;;;17.10;23.66
76766;BME280;65707;52.362;6.588;2023-02-28T12:41:29;103018.34;;;16.52;24.42
76766;BME280;65707;52.362;6.588;2023-02-28T12:44:09;103024.09;;;16.39;24.52
76766;BME280;65707;52.362;6.588;2023-02-28T12:46:42;103018.22;;;16.44;24.93
76766;BME280;65707;52.362;6.588;2023-02-28T12:49:16;103004.56;;;17.75;21.99
76766;BME280;65707;52.362;6.588;2023-02-28T12:51:46;103002.59;;;17.34;23.20
76766;BME280;65707;52.362;6.588;2023-02-28T12:54:21;103001.44;;;17.19;23.76
76766;BME280;65707;52.362;6.588;2023-02-28T12:56:58;103004.16;;;17.19;24.88
76766;BME280;65707;52.362;6.588;2023-02-28T12:59:38;102985.25;;;17.86;21.35
76766;BME280;65707;52.362;6.588;2023-02-28T13:02:33;102980.06;;;17.41;21.14
76766;BME280;65707;52.362;6.588;2023-02-28T13:05:26;102987.34;;;17.66;22.64
76766;BME280;65707;52.362;6.588;2023-02-28T13:11:29;102977.16;;;17.60;21.83
76766;BME280;65707;52.362;6.588;2023-02-28T13:14:00;102974.78;;;17.14;21.64
76766;BME280;65707;52.362;6.588;2023-02-28T13:16:56;102978.88;;;16.92;23.82
76766;BME280;65707;52.362;6.588;2023-02-28T13:19:27;102975.81;;;17.39;23.33
76766;BME280;65707;52.362;6.588;2023-02-28T13:21:56;102977.84;;;17.37;22.29
76766;BME280;65707;52.362;6.588;2023-02-28T13:24:51;102975.00;;;17.21;22.44
76766;BME280;65707;52.362;6.588;2023-02-28T13:33:33;102960.91;;;18.26;20.68
76766;BME280;65707;52.362;6.588;2023-02-28T13:36:09;102969.91;;;18.26;22.02